createdAt,value
2017-12-31T00:02:12.265Z,16.00
2017-12-31T00:04:40.594Z,16.00
2017-12-31T00:07:08.028Z,15.60
2017-12-31T00:09:35.453Z,15.80
2017-12-31T00:12:02.916Z,15.70
2017-12-31T00:14:30.349Z,15.70
2017-12-31T00:16:58.540Z,15.30
2017-12-31T00:19:25.976Z,15.30
2017-12-31T00:21:54.191Z,15.40
2017-12-31T00:24:21.648Z,15.40
2017-12-31T00:26:49.079Z,15.50
2017-12-31T00:29:17.283Z,15.50
2017-12-31T00:31:44.720Z,15.50
2017-12-31T00:34:12.148Z,15.60
2017-12-31T00:36:40.349Z,15.80
2017-12-31T00:39:07.784Z,15.80
2017-12-31T00:41:36.899Z,15.30
2017-12-31T00:44:04.338Z,15.30
2017-12-31T00:46:32.545Z,15.70
2017-12-31T00:48:59.998Z,15.70
2017-12-31T00:51:27.439Z,15.60
2017-12-31T00:53:55.629Z,14.90
2017-12-31T00:56:23.069Z,14.80
2017-12-31T00:58:51.291Z,15.30
2017-12-31T01:01:19.260Z,15.30
2017-12-31T01:03:46.689Z,15.00
2017-12-31T01:06:14.119Z,15.20
2017-12-31T01:08:42.342Z,15.50
2017-12-31T01:11:09.817Z,15.40
2017-12-31T01:13:37.244Z,15.60
2017-12-31T01:16:04.667Z,15.40
2017-12-31T01:18:32.899Z,14.90
2017-12-31T01:21:00.321Z,14.90
2017-12-31T01:23:27.760Z,14.80
2017-12-31T01:25:55.992Z,14.40
2017-12-31T01:28:23.435Z,14.40
2017-12-31T01:30:50.856Z,14.80
2017-12-31T01:33:19.069Z,14.90
2017-12-31T01:35:46.495Z,14.90
2017-12-31T01:38:13.939Z,15.10
2017-12-31T01:40:42.166Z,14.90
2017-12-31T01:43:09.611Z,14.90
2017-12-31T01:45:37.034Z,14.80
2017-12-31T01:48:05.250Z,14.90
2017-12-31T01:50:32.691Z,14.90
2017-12-31T01:53:00.122Z,15.20
2017-12-31T01:55:28.324Z,15.50
2017-12-31T01:57:55.755Z,15.50
2017-12-31T02:00:23.969Z,15.80
2017-12-31T02:02:51.404Z,15.70
2017-12-31T02:05:18.845Z,15.60
2017-12-31T02:07:47.065Z,15.80
2017-12-31T02:10:14.489Z,15.80
2017-12-31T02:12:41.908Z,15.80
2017-12-31T02:15:09.344Z,15.80
2017-12-31T02:17:37.752Z,15.80
2017-12-31T02:20:05.181Z,15.50
2017-12-31T02:22:32.620Z,15.50
2017-12-31T02:25:00.056Z,15.60
2017-12-31T02:27:28.253Z,15.70
2017-12-31T02:29:55.676Z,15.70
2017-12-31T02:32:23.885Z,15.40
2017-12-31T02:34:51.316Z,15.40
2017-12-31T02:37:19.512Z,15.30
2017-12-31T02:39:46.976Z,15.30
2017-12-31T02:42:14.397Z,15.60
2017-12-31T02:44:42.597Z,15.00
2017-12-31T02:47:10.044Z,15.00
2017-12-31T02:49:38.276Z,15.30
2017-12-31T02:52:05.737Z,15.30
2017-12-31T02:54:33.165Z,15.20
2017-12-31T02:57:00.588Z,15.00
2017-12-31T02:59:28.034Z,15.10
2017-12-31T03:01:56.216Z,15.00
2017-12-31T03:04:24.412Z,15.20
2017-12-31T03:06:51.836Z,15.20
2017-12-31T03:09:20.050Z,15.30
2017-12-31T03:11:47.480Z,15.30
2017-12-31T03:14:15.684Z,15.40
2017-12-31T03:16:43.116Z,15.40
2017-12-31T03:19:10.558Z,15.60
2017-12-31T03:21:38.749Z,15.30
2017-12-31T03:24:06.185Z,15.20
2017-12-31T03:26:34.385Z,14.80
2017-12-31T03:29:02.578Z,15.00
2017-12-31T03:31:30.010Z,15.00
2017-12-31T03:33:58.254Z,15.10
2017-12-31T03:36:25.688Z,15.10
2017-12-31T03:38:53.140Z,15.10
2017-12-31T03:41:20.555Z,14.70
2017-12-31T03:43:47.988Z,14.80
2017-12-31T03:46:15.424Z,14.70
2017-12-31T03:48:42.871Z,14.50
2017-12-31T03:51:10.320Z,14.70
2017-12-31T03:53:37.744Z,14.60
2017-12-31T03:56:05.180Z,14.40
2017-12-31T03:58:32.625Z,14.40
2017-12-31T04:01:00.086Z,14.40
2017-12-31T04:03:27.505Z,14.70
2017-12-31T04:05:54.960Z,14.70
2017-12-31T04:08:22.393Z,14.40
2017-12-31T04:10:49.837Z,14.70
2017-12-31T04:13:18.452Z,14.30
2017-12-31T04:15:45.904Z,14.30
2017-12-31T04:18:13.329Z,14.30
2017-12-31T04:20:41.528Z,13.80
2017-12-31T04:23:08.974Z,13.80
2017-12-31T04:25:37.207Z,13.70
2017-12-31T04:28:04.644Z,13.50
2017-12-31T04:30:32.081Z,13.50
2017-12-31T04:32:59.517Z,13.60
2017-12-31T04:35:27.708Z,14.00
2017-12-31T04:37:55.160Z,13.90
2017-12-31T04:40:22.588Z,14.00
2017-12-31T04:42:50.031Z,14.10
2017-12-31T04:45:17.456Z,14.00
2017-12-31T04:47:44.885Z,13.70
2017-12-31T04:50:12.324Z,13.60
2017-12-31T04:52:40.525Z,13.40
2017-12-31T04:55:08.025Z,13.30
2017-12-31T04:57:35.451Z,13.60
2017-12-31T05:00:02.894Z,13.70
2017-12-31T05:02:31.085Z,13.90
2017-12-31T05:04:58.516Z,13.90
2017-12-31T05:07:26.713Z,13.80
2017-12-31T05:09:54.156Z,13.80
2017-12-31T05:12:21.639Z,13.90
2017-12-31T05:14:49.055Z,13.90
2017-12-31T05:17:17.253Z,14.00
2017-12-31T05:19:44.681Z,14.00
2017-12-31T05:22:12.118Z,14.40
2017-12-31T05:24:39.579Z,14.30
2017-12-31T05:27:07.004Z,14.00
2017-12-31T05:29:34.439Z,13.80
2017-12-31T05:32:01.894Z,13.70
2017-12-31T05:34:29.356Z,14.50
2017-12-31T05:36:57.532Z,14.90
2017-12-31T05:39:24.964Z,14.80
2017-12-31T05:41:53.180Z,14.40
2017-12-31T05:44:20.642Z,14.40
2017-12-31T05:46:48.091Z,14.30
2017-12-31T05:49:15.541Z,14.50
2017-12-31T05:51:42.960Z,13.90
2017-12-31T05:54:11.188Z,14.20
2017-12-31T05:56:38.612Z,14.20
2017-12-31T05:59:06.826Z,14.40
2017-12-31T06:01:34.239Z,14.40
2017-12-31T06:04:02.471Z,14.40
2017-12-31T06:06:29.888Z,14.40
2017-12-31T06:08:57.332Z,14.10
2017-12-31T06:11:25.524Z,14.90
2017-12-31T06:13:52.967Z,14.90
2017-12-31T06:16:20.408Z,14.80
2017-12-31T06:18:48.644Z,14.10
2017-12-31T06:21:16.085Z,14.00
2017-12-31T06:23:43.521Z,14.30
2017-12-31T06:26:10.961Z,14.30
2017-12-31T06:28:39.179Z,14.80
2017-12-31T06:31:06.625Z,14.80
2017-12-31T06:33:34.050Z,14.30
2017-12-31T06:36:02.265Z,14.10
2017-12-31T06:38:29.697Z,14.10
2017-12-31T06:40:57.128Z,14.50
2017-12-31T06:43:24.570Z,14.90
2017-12-31T06:45:52.000Z,14.70
2017-12-31T06:48:19.444Z,14.70
2017-12-31T06:50:46.885Z,14.00
2017-12-31T06:53:15.098Z,14.00
2017-12-31T06:55:42.545Z,13.90
2017-12-31T06:58:09.984Z,14.10
2017-12-31T07:00:38.252Z,14.00
2017-12-31T07:03:05.708Z,14.00
2017-12-31T07:05:33.886Z,14.10
2017-12-31T07:08:01.325Z,14.10
2017-12-31T07:10:29.520Z,14.10
2017-12-31T07:12:56.965Z,14.00
2017-12-31T07:15:25.189Z,14.30
2017-12-31T07:17:52.617Z,14.30
2017-12-31T07:20:20.048Z,14.40
2017-12-31T07:22:48.263Z,14.80
2017-12-31T07:25:15.684Z,14.70
2017-12-31T07:27:43.892Z,14.50
2017-12-31T07:30:11.321Z,14.50
2017-12-31T07:32:39.532Z,14.40
2017-12-31T07:35:06.964Z,14.40
2017-12-31T07:37:35.183Z,14.90
2017-12-31T07:40:02.615Z,14.90
2017-12-31T07:42:30.102Z,14.60
2017-12-31T07:44:57.542Z,14.90
2017-12-31T07:47:24.973Z,14.70
2017-12-31T07:49:52.417Z,14.70
2017-12-31T07:52:20.610Z,15.50
2017-12-31T07:54:48.033Z,15.40
2017-12-31T07:57:16.245Z,15.40
2017-12-31T07:59:43.680Z,15.40
2017-12-31T08:02:12.613Z,15.10
2017-12-31T08:04:40.876Z,15.10
2017-12-31T08:07:08.360Z,15.10
2017-12-31T08:09:35.744Z,15.50
2017-12-31T08:12:03.185Z,15.30
2017-12-31T08:14:30.625Z,15.40
2017-12-31T08:16:58.072Z,15.10
2017-12-31T08:19:25.526Z,15.40
2017-12-31T08:21:52.964Z,15.90
2017-12-31T08:24:20.434Z,16.00
2017-12-31T08:26:47.854Z,15.90
2017-12-31T08:29:15.280Z,15.20
2017-12-31T08:31:42.717Z,14.90
2017-12-31T08:34:10.167Z,14.70
2017-12-31T08:36:38.520Z,15.30
2017-12-31T08:39:05.956Z,15.30
2017-12-31T08:41:34.210Z,15.10
2017-12-31T08:44:01.629Z,15.10
2017-12-31T08:46:29.066Z,14.60
2017-12-31T08:48:56.579Z,14.50
2017-12-31T08:51:23.996Z,14.40
2017-12-31T08:53:51.474Z,14.70
2017-12-31T08:56:18.914Z,14.90
2017-12-31T08:58:46.354Z,15.00
2017-12-31T09:01:13.798Z,15.60
2017-12-31T09:03:42.005Z,15.30
2017-12-31T09:06:09.435Z,15.30
2017-12-31T09:08:38.564Z,15.70
2017-12-31T09:11:05.984Z,15.70
2017-12-31T09:13:34.195Z,15.80
2017-12-31T09:16:01.627Z,15.80
2017-12-31T09:18:29.816Z,16.10
2017-12-31T09:20:57.253Z,16.00
2017-12-31T09:23:25.456Z,15.80
2017-12-31T09:25:52.904Z,15.80
2017-12-31T09:28:20.334Z,15.90
2017-12-31T09:30:48.536Z,16.10
2017-12-31T09:33:15.981Z,16.00
2017-12-31T09:35:44.189Z,15.90
2017-12-31T09:38:11.625Z,15.80
2017-12-31T09:40:39.049Z,15.90
2017-12-31T09:43:06.489Z,15.90
2017-12-31T09:45:33.939Z,15.60
2017-12-31T09:48:01.356Z,15.50
2017-12-31T09:50:28.816Z,15.40
2017-12-31T09:52:57.022Z,16.20
2017-12-31T09:55:24.455Z,16.20
2017-12-31T09:57:51.920Z,16.50
2017-12-31T10:00:19.336Z,16.30
2017-12-31T10:02:47.549Z,16.10
2017-12-31T10:05:14.973Z,16.10
2017-12-31T10:07:43.187Z,16.40
2017-12-31T10:10:10.618Z,16.40
2017-12-31T10:12:38.052Z,16.40
2017-12-31T10:15:05.561Z,16.10
2017-12-31T10:17:33.037Z,16.00
2017-12-31T10:20:00.492Z,16.30
2017-12-31T10:22:27.940Z,16.50
2017-12-31T10:24:55.375Z,16.40
2017-12-31T10:27:22.825Z,16.10
2017-12-31T10:29:50.326Z,16.00
2017-12-31T10:32:17.760Z,16.00
2017-12-31T10:34:45.209Z,16.20
2017-12-31T10:37:12.637Z,16.30
2017-12-31T10:39:40.827Z,16.10
2017-12-31T10:42:08.333Z,16.10
2017-12-31T10:44:35.784Z,16.10
2017-12-31T10:47:03.243Z,16.40
2017-12-31T10:49:30.724Z,16.60
2017-12-31T10:51:58.164Z,16.70
2017-12-31T10:54:25.592Z,16.90
2017-12-31T10:56:53.129Z,17.10
2017-12-31T10:59:21.307Z,16.70
2017-12-31T11:01:48.767Z,16.70
2017-12-31T11:04:16.936Z,17.10
2017-12-31T11:06:44.393Z,17.10
2017-12-31T11:09:11.933Z,17.10
2017-12-31T11:11:40.137Z,17.20
2017-12-31T11:14:07.572Z,17.20
2017-12-31T11:16:35.798Z,17.20
2017-12-31T11:19:03.212Z,17.20
2017-12-31T11:21:31.413Z,16.80
2017-12-31T11:23:58.857Z,16.80
2017-12-31T11:26:26.300Z,17.00
2017-12-31T11:28:54.501Z,16.80
2017-12-31T11:31:21.932Z,16.70
2017-12-31T11:33:50.132Z,16.60
2017-12-31T11:36:17.556Z,16.60
2017-12-31T11:38:45.768Z,16.90
2017-12-31T11:41:13.241Z,16.90
2017-12-31T11:43:40.691Z,16.90
2017-12-31T11:46:08.116Z,17.10
2017-12-31T11:48:36.317Z,17.00
2017-12-31T11:51:03.757Z,16.90
2017-12-31T11:53:31.192Z,16.90
2017-12-31T11:55:59.398Z,17.40
2017-12-31T11:58:26.856Z,17.40
2017-12-31T12:00:54.304Z,16.80
2017-12-31T12:03:22.608Z,17.20
2017-12-31T12:05:50.050Z,16.90
2017-12-31T12:08:19.198Z,17.00
2017-12-31T12:10:46.650Z,17.10
2017-12-31T12:13:14.090Z,17.60
2017-12-31T12:15:41.533Z,17.60
2017-12-31T12:18:08.978Z,17.40
2017-12-31T12:20:36.424Z,16.70
2017-12-31T12:23:03.862Z,16.70
2017-12-31T12:25:32.060Z,16.40
2017-12-31T12:27:59.496Z,16.30
2017-12-31T12:30:27.699Z,17.10
2017-12-31T12:32:55.165Z,17.10
2017-12-31T12:35:22.602Z,17.00
2017-12-31T12:37:50.036Z,17.30
2017-12-31T12:40:18.241Z,17.40
2017-12-31T12:42:45.695Z,17.40
2017-12-31T12:45:13.120Z,17.60
2017-12-31T12:47:41.321Z,17.40
2017-12-31T12:50:08.769Z,17.40
2017-12-31T12:52:36.967Z,17.20
2017-12-31T12:55:04.421Z,17.20
2017-12-31T12:57:32.607Z,17.60
2017-12-31T13:00:00.052Z,17.60
2017-12-31T13:02:27.472Z,17.50
2017-12-31T13:04:54.904Z,17.30
2017-12-31T13:07:22.352Z,17.20
2017-12-31T13:09:49.797Z,17.30
2017-12-31T13:12:17.225Z,16.90
2017-12-31T13:14:45.458Z,17.30
2017-12-31T13:17:12.893Z,17.30
2017-12-31T13:19:40.335Z,17.40
2017-12-31T13:22:07.749Z,17.60
2017-12-31T13:24:35.190Z,17.70
2017-12-31T13:27:02.638Z,17.10
2017-12-31T13:29:30.084Z,17.40
2017-12-31T13:31:57.526Z,17.90
2017-12-31T13:34:24.970Z,17.60
2017-12-31T13:36:52.413Z,17.10
2017-12-31T13:39:20.608Z,17.00
2017-12-31T13:41:48.416Z,17.00
2017-12-31T13:44:15.838Z,16.90
2017-12-31T13:46:43.299Z,16.80
2017-12-31T13:49:10.750Z,17.00
2017-12-31T13:51:39.117Z,16.70
2017-12-31T13:54:06.572Z,16.70
2017-12-31T13:56:34.052Z,17.20
2017-12-31T13:59:01.480Z,17.30
2017-12-31T14:01:29.787Z,17.10
2017-12-31T14:03:57.204Z,17.10
2017-12-31T14:06:25.411Z,17.20
2017-12-31T14:08:52.840Z,17.20
2017-12-31T14:11:21.038Z,16.70
2017-12-31T14:13:48.492Z,16.70
2017-12-31T14:16:15.917Z,16.90
2017-12-31T14:18:44.114Z,16.60
2017-12-31T14:21:11.566Z,16.60
2017-12-31T14:23:38.976Z,16.90
2017-12-31T14:26:06.425Z,16.80
2017-12-31T14:28:33.880Z,17.00
2017-12-31T14:31:01.331Z,17.00
2017-12-31T14:33:28.798Z,16.70
2017-12-31T14:35:56.200Z,16.80
2017-12-31T14:38:24.408Z,16.90
2017-12-31T14:40:51.845Z,16.90
2017-12-31T14:43:19.269Z,16.60
2017-12-31T14:45:46.705Z,16.80
2017-12-31T14:48:14.161Z,16.60
2017-12-31T14:50:41.613Z,16.60
2017-12-31T14:53:09.056Z,16.20
2017-12-31T14:55:36.471Z,16.50
2017-12-31T14:58:04.696Z,16.70
2017-12-31T15:00:32.133Z,16.60
2017-12-31T15:02:59.584Z,16.80
2017-12-31T15:05:27.785Z,16.50
2017-12-31T15:07:55.229Z,16.50
2017-12-31T15:10:22.663Z,16.30
2017-12-31T15:12:50.871Z,16.50
2017-12-31T15:15:18.294Z,16.50
2017-12-31T15:17:46.506Z,16.20
2017-12-31T15:20:13.988Z,16.20
2017-12-31T15:22:41.376Z,16.60
2017-12-31T15:25:09.590Z,16.80
2017-12-31T15:27:37.060Z,16.80
2017-12-31T15:30:04.501Z,16.70
2017-12-31T15:32:31.945Z,16.80
2017-12-31T15:34:59.379Z,16.90
2017-12-31T15:37:27.573Z,16.80
2017-12-31T15:39:55.036Z,16.80
2017-12-31T15:42:22.477Z,16.70
2017-12-31T15:44:50.713Z,16.40
2017-12-31T15:47:18.145Z,16.40
2017-12-31T15:49:45.595Z,16.60
2017-12-31T15:52:13.051Z,17.00
2017-12-31T15:54:40.476Z,17.00
2017-12-31T15:57:08.705Z,16.10
2017-12-31T15:59:36.136Z,16.00
2017-12-31T16:02:03.585Z,16.00
2017-12-31T16:04:31.804Z,16.40
2017-12-31T16:06:59.305Z,16.30
2017-12-31T16:09:26.724Z,16.40
2017-12-31T16:11:54.172Z,16.30
2017-12-31T16:14:21.596Z,15.70
2017-12-31T16:16:49.031Z,15.80
2017-12-31T16:19:17.228Z,15.70
2017-12-31T16:21:44.657Z,15.70
2017-12-31T16:24:12.877Z,15.40
2017-12-31T16:26:40.345Z,15.30
2017-12-31T16:29:07.790Z,15.30
2017-12-31T16:31:35.241Z,15.30
2017-12-31T16:34:02.688Z,15.40
2017-12-31T16:36:30.125Z,15.70
2017-12-31T16:38:58.321Z,15.50
2017-12-31T16:41:25.758Z,15.50
2017-12-31T16:43:53.959Z,15.00
2017-12-31T16:46:21.377Z,15.00
2017-12-31T16:48:48.824Z,15.20
2017-12-31T16:51:16.269Z,15.00
2017-12-31T16:53:43.717Z,14.80
2017-12-31T16:56:11.160Z,14.80
2017-12-31T16:58:38.852Z,14.90
2017-12-31T17:01:06.291Z,15.00
2017-12-31T17:03:33.735Z,15.00
2017-12-31T17:06:01.169Z,15.00
2017-12-31T17:08:28.604Z,15.10
2017-12-31T17:10:56.958Z,15.30
2017-12-31T17:13:24.396Z,15.30
2017-12-31T17:15:51.945Z,15.10
2017-12-31T17:18:19.356Z,15.10
2017-12-31T17:20:47.564Z,15.10
2017-12-31T17:23:15.003Z,15.10
2017-12-31T17:25:43.196Z,15.00
2017-12-31T17:28:10.636Z,15.00
2017-12-31T17:30:38.867Z,15.20
2017-12-31T17:33:06.315Z,14.90
2017-12-31T17:35:33.726Z,15.10
2017-12-31T17:38:01.944Z,15.20
2017-12-31T17:40:29.373Z,15.20
2017-12-31T17:42:56.847Z,15.20
2017-12-31T17:45:24.278Z,15.30
2017-12-31T17:47:51.776Z,15.50
2017-12-31T17:50:19.250Z,15.40
2017-12-31T17:52:46.676Z,14.80
2017-12-31T17:55:14.113Z,14.70
2017-12-31T17:57:41.549Z,14.70
2017-12-31T18:00:09.752Z,14.60
2017-12-31T18:02:37.174Z,14.60
2017-12-31T18:05:04.612Z,14.40
2017-12-31T18:07:32.040Z,14.50
2017-12-31T18:09:59.518Z,14.40
2017-12-31T18:12:27.000Z,14.40
2017-12-31T18:14:54.447Z,14.10
2017-12-31T18:17:21.876Z,14.60
2017-12-31T18:19:49.299Z,14.70
2017-12-31T18:22:16.741Z,15.10
2017-12-31T18:24:44.936Z,14.90
2017-12-31T18:27:12.381Z,14.90
2017-12-31T18:29:40.574Z,14.40
2017-12-31T18:32:08.038Z,14.40
2017-12-31T18:34:35.465Z,14.70
2017-12-31T18:37:03.673Z,14.70
2017-12-31T18:39:31.114Z,14.70
2017-12-31T18:41:59.334Z,15.30
2017-12-31T18:44:26.754Z,15.30
2017-12-31T18:46:54.248Z,15.30
2017-12-31T18:49:21.710Z,15.50
2017-12-31T18:51:49.144Z,15.20
2017-12-31T18:54:16.597Z,15.30
2017-12-31T18:56:44.035Z,15.40
2017-12-31T18:59:12.245Z,15.50
2017-12-31T19:01:39.701Z,15.50
2017-12-31T19:04:07.149Z,15.30
2017-12-31T19:06:34.606Z,15.20
2017-12-31T19:09:02.058Z,15.50
2017-12-31T19:11:29.500Z,15.60
2017-12-31T19:13:57.691Z,15.60
2017-12-31T19:16:25.137Z,15.60
2017-12-31T19:18:53.349Z,15.40
2017-12-31T19:21:20.797Z,15.40
2017-12-31T19:23:48.265Z,15.70
2017-12-31T19:26:16.127Z,15.50
2017-12-31T19:28:43.528Z,15.40
2017-12-31T19:31:11.017Z,15.70
2017-12-31T19:33:39.929Z,15.00
2017-12-31T19:36:07.377Z,15.00
2017-12-31T19:38:34.822Z,15.00
2017-12-31T19:41:02.263Z,15.20
2017-12-31T19:43:29.692Z,15.20
2017-12-31T19:45:57.152Z,15.30
2017-12-31T19:48:27.574Z,15.50
2017-12-31T19:50:55.060Z,15.00
2017-12-31T19:53:23.328Z,14.90
2017-12-31T19:55:51.530Z,15.20
2017-12-31T19:58:19.124Z,15.20
2017-12-31T20:00:47.352Z,15.30
2017-12-31T20:03:15.554Z,14.90
2017-12-31T20:05:42.980Z,14.90
2017-12-31T20:08:11.186Z,15.10
2017-12-31T20:10:39.289Z,15.00
2017-12-31T20:13:06.732Z,15.30
2017-12-31T20:15:34.167Z,15.20
2017-12-31T20:18:01.597Z,15.00
2017-12-31T20:20:29.792Z,14.20
2017-12-31T20:22:57.227Z,14.20
2017-12-31T20:25:25.419Z,13.70
2017-12-31T20:27:52.855Z,13.70
2017-12-31T20:30:21.095Z,14.00
2017-12-31T20:32:48.541Z,14.00
2017-12-31T20:35:15.983Z,13.70
2017-12-31T20:37:43.420Z,13.60
2017-12-31T20:40:11.621Z,12.80
2017-12-31T20:42:39.308Z,12.80
2017-12-31T20:45:06.748Z,13.20
2017-12-31T20:47:34.203Z,13.20
2017-12-31T20:50:01.645Z,13.30
2017-12-31T20:52:30.412Z,13.00
2017-12-31T20:54:58.614Z,12.70
2017-12-31T20:57:26.057Z,12.70
2017-12-31T20:59:53.495Z,13.10
2017-12-31T21:02:21.696Z,12.70
2017-12-31T21:04:49.116Z,12.60
2017-12-31T21:07:16.573Z,12.70
2017-12-31T21:09:44.000Z,12.50
2017-12-31T21:12:11.497Z,12.80
2017-12-31T21:14:40.217Z,12.50
2017-12-31T21:17:07.672Z,12.50
2017-12-31T21:19:35.096Z,12.70
2017-12-31T21:22:03.288Z,12.20
2017-12-31T21:24:30.731Z,12.20
2017-12-31T21:26:58.920Z,12.60
2017-12-31T21:29:27.168Z,12.90
2017-12-31T21:31:54.593Z,12.90
2017-12-31T21:34:22.044Z,12.80
2017-12-31T21:36:49.468Z,12.60
2017-12-31T21:39:17.678Z,12.50
2017-12-31T21:41:45.138Z,12.50
2017-12-31T21:44:12.565Z,12.70
2017-12-31T21:46:40.008Z,12.80
2017-12-31T21:49:08.204Z,12.80
2017-12-31T21:51:35.635Z,12.80
2017-12-31T21:54:03.834Z,13.10
2017-12-31T21:56:31.272Z,13.10
2017-12-31T21:59:00.267Z,13.30
2017-12-31T22:01:27.711Z,13.30
2017-12-31T22:03:55.175Z,12.90
2017-12-31T22:06:22.604Z,13.50
2017-12-31T22:08:50.034Z,13.40
2017-12-31T22:11:17.468Z,13.30
2017-12-31T22:13:45.444Z,13.50
2017-12-31T22:16:12.876Z,13.00
2017-12-31T22:18:41.073Z,12.90
2017-12-31T22:21:09.712Z,12.90
2017-12-31T22:23:37.136Z,13.10
2017-12-31T22:26:04.583Z,13.10
2017-12-31T22:28:32.026Z,12.40
2017-12-31T22:31:00.196Z,12.50
2017-12-31T22:33:27.641Z,12.50
2017-12-31T22:35:55.879Z,12.60
2017-12-31T22:38:23.324Z,12.60
2017-12-31T22:40:50.753Z,12.90
2017-12-31T22:43:18.197Z,12.90
2017-12-31T22:45:45.657Z,13.50
2017-12-31T22:48:13.844Z,13.70
2017-12-31T22:50:41.297Z,13.70
2017-12-31T22:53:09.489Z,13.40
2017-12-31T22:55:36.924Z,13.40
2017-12-31T22:58:04.392Z,13.30
2017-12-31T23:00:32.620Z,12.90
2017-12-31T23:03:00.058Z,12.20
2017-12-31T23:05:27.513Z,12.60
2017-12-31T23:07:54.943Z,12.50
2017-12-31T23:10:22.377Z,12.60
2017-12-31T23:12:50.572Z,12.30
2017-12-31T23:15:18.017Z,12.30
2017-12-31T23:17:45.452Z,12.60
2017-12-31T23:20:12.926Z,12.60
2017-12-31T23:22:41.132Z,11.90
2017-12-31T23:25:08.566Z,11.90
2017-12-31T23:27:35.991Z,11.50
2017-12-31T23:30:03.419Z,11.80
2017-12-31T23:32:30.860Z,11.70
2017-12-31T23:34:58.284Z,11.60
2017-12-31T23:37:26.490Z,11.60
2017-12-31T23:39:53.926Z,11.60
2017-12-31T23:42:21.373Z,11.50
2017-12-31T23:44:49.561Z,11.90
2017-12-31T23:47:17.001Z,11.90
2017-12-31T23:49:45.200Z,11.90
2017-12-31T23:52:12.636Z,11.90
2017-12-31T23:54:40.836Z,11.70
2017-12-31T23:57:08.260Z,11.70
2017-12-31T23:59:37.395Z,11.40
